Terminal Aerodrome Forecast
Issued by NWS Sterling, VA

Current Version | Previous Version | Graphics & Text | Print | Product List | Glossary On
Versions: 1 2 3 4 5 6 7 8 9 10 11 12 13 14 15 16 17 18 19 20 21 22 23 24
000
FTUS41 KLWX 251755
TAFDCA
TAF
KDCA 251755Z 2518/2618 16005KT P6SM BKN240
     FM252200 VRB04KT P6SM BKN200
     FM260200 VRB03KT P6SM BKN035 OVC080
     FM260800 04009KT 3SM -SN OVC020
     FM261100 01010KT 1SM -SN OVC010
     FM261600 35010KT 4SM -SN OVC020=

USA.gov is the U.S. government's official web portal to all federal, state and local government web resources and services.